Time;durP1;ratioP1;P1;durP2;ratioP2;P2;SDS_P1;SDS_P2;PMS_P1;PMS_P2;Temp;Humidity;BMP_temperature;BMP_pressure;BME280_temperature;BME280_humidity;BME280_pressure;Samples;Min_cycle;Max_cycle;Signal;HPM_P1;HPM_P2
2021/11/22 00:01:29;;;;;;;14.33;4.23;;;5.20;99.90;;;;;;4183340;28;20207;-88
2021/11/22 00:03:31;;;;;;;19.30;4.30;;;5.10;99.90;;;;;;4183411;28;20214;-88
2021/11/22 00:05:32;;;;;;;16.90;4.27;;;5.10;99.90;;;;;;4183591;28;20179;-89
2021/11/22 00:07:33;;;;;;;19.23;5.13;;;5.10;99.90;;;;;;4183143;28;20171;-88
2021/11/22 00:09:34;;;;;;;21.57;4.03;;;5.10;99.90;;;;;;4183450;28;20259;-88
2021/11/22 00:11:35;;;;;;;16.50;4.13;;;5.00;99.90;;;;;;4184472;28;20178;-88
2021/11/22 00:13:35;;;;;;;17.67;4.30;;;4.90;99.90;;;;;;4190487;28;20286;-88
2021/11/22 00:15:36;;;;;;;17.40;4.27;;;5.00;99.90;;;;;;4186687;28;20190;-89
2021/11/22 00:17:37;;;;;;;16.57;4.50;;;5.00;99.90;;;;;;4199719;28;20163;-88
2021/11/22 00:19:38;;;;;;;14.23;4.93;;;5.20;99.90;;;;;;4183357;28;20677;-88
2021/11/22 00:21:39;;;;;;;18.75;3.88;;;5.10;99.90;;;;;;4183222;28;20188;-88
2021/11/22 00:23:40;;;;;;;12.07;3.70;;;5.10;99.90;;;;;;4183118;28;20257;-88
2021/11/22 00:25:41;;;;;;;19.53;4.60;;;5.30;99.90;;;;;;4183128;28;20172;-88
2021/11/22 00:27:42;;;;;;;18.20;4.10;;;5.20;99.90;;;;;;4199604;28;20182;-87
2021/11/22 00:30:05;;;;;;;17.67;4.37;;;5.30;99.90;;;;;;4199799;28;20201;-88
2021/11/22 00:32:35;;;;;;;19.80;4.13;;;5.60;99.90;;;;;;4203419;28;20252;-94
2021/11/22 00:35:14;;;;;;;16.43;3.83;;;5.90;99.90;;;;;;4204021;28;20198;-88
2021/11/22 00:37:20;;;;;;;11.77;2.93;;;6.00;99.90;;;;;;4182833;28;20175;-87
2021/11/22 00:39:20;;;;;;;11.10;3.67;;;5.80;99.90;;;;;;4199702;28;20210;-87
2021/11/22 00:41:21;;;;;;;16.77;3.70;;;5.90;99.90;;;;;;4199471;28;20175;-88
2021/11/22 00:43:22;;;;;;;18.43;3.50;;;5.70;99.90;;;;;;4182369;28;20244;-88
2021/11/22 00:45:23;;;;;;;16.13;3.40;;;5.60;99.90;;;;;;4182797;28;20250;-88
2021/11/22 00:47:24;;;;;;;18.60;3.60;;;5.80;99.90;;;;;;4182769;28;20209;-88
2021/11/22 00:49:25;;;;;;;11.30;2.77;;;5.70;99.90;;;;;;4182715;28;20172;-88
2021/11/22 00:51:25;;;;;;;16.03;3.27;;;5.80;99.90;;;;;;4182777;28;20722;-93
2021/11/22 00:53:28;;;;;;;10.53;2.83;;;5.90;99.90;;;;;;4182638;28;20180;-88
2021/11/22 00:55:29;;;;;;;8.33;2.63;;;5.80;99.90;;;;;;4182786;28;20367;-88
2021/11/22 00:57:30;;;;;;;13.90;3.13;;;5.20;99.90;;;;;;4182666;28;20171;-87
2021/11/22 00:59:31;;;;;;;10.13;2.70;;;5.20;99.90;;;;;;4199194;28;20174;-87
2021/11/22 01:01:31;;;;;;;16.43;2.90;;;5.40;99.90;;;;;;4182736;28;20175;-87
2021/11/22 01:03:32;;;;;;;10.17;2.80;;;5.60;99.90;;;;;;4182529;28;20269;-87
2021/11/22 01:05:33;;;;;;;12.63;3.00;;;5.70;99.90;;;;;;4182479;28;20171;-88
2021/11/22 01:07:34;;;;;;;14.20;3.20;;;5.50;99.90;;;;;;4199564;28;20171;-87
2021/11/22 01:09:35;;;;;;;10.70;2.90;;;5.60;99.90;;;;;;4182818;28;20171;-87
2021/11/22 01:11:36;;;;;;;11.03;2.50;;;5.50;99.90;;;;;;4182498;28;20183;-88
2021/11/22 01:13:39;;;;;;;12.43;2.60;;;5.50;99.90;;;;;;4199228;28;20190;-89
2021/11/22 01:15:40;;;;;;;13.47;1.97;;;5.60;99.90;;;;;;4182718;28;20167;-88
2021/11/22 01:17:50;;;;;;;11.77;2.67;;;5.60;99.90;;;;;;4198993;28;20175;-87
2021/11/22 01:20:21;;;;;;;10.43;2.37;;;5.60;99.90;;;;;;4199679;28;20181;-88
2021/11/22 01:22:24;;;;;;;15.50;2.30;;;5.70;99.90;;;;;;4182261;28;20186;-87
2021/11/22 01:24:25;;;;;;;12.50;2.10;;;6.00;99.90;;;;;;4182918;28;20793;-88
2021/11/22 01:26:25;;;;;;;13.67;1.90;;;6.20;99.90;;;;;;4199034;28;20178;-87
2021/11/22 01:28:27;;;;;;;5.70;1.47;;;6.20;99.90;;;;;;4181155;28;20179;-87
2021/11/22 01:30:28;;;;;;;6.90;1.70;;;6.10;99.90;;;;;;4182608;28;20174;-88
2021/11/22 01:32:29;;;;;;;9.90;1.73;;;6.10;99.90;;;;;;4183282;28;20676;-87
2021/11/22 01:34:30;;;;;;;6.50;1.70;;;6.10;99.90;;;;;;4182146;28;20199;-87
2021/11/22 01:36:31;;;;;;;8.53;1.77;;;6.00;99.90;;;;;;4181996;28;20624;-87
2021/11/22 01:38:32;;;;;;;6.43;1.47;;;6.00;99.90;;;;;;4182235;28;20258;-88
2021/11/22 01:40:33;;;;;;;7.57;1.47;;;6.00;99.90;;;;;;4182639;28;20183;-88
2021/11/22 01:42:37;;;;;;;8.83;1.23;;;6.00;99.90;;;;;;4182182;28;20168;-87
2021/11/22 01:44:38;;;;;;;8.60;1.17;;;6.00;99.90;;;;;;4182172;28;20219;-87
2021/11/22 01:46:39;;;;;;;9.70;1.30;;;6.00;99.90;;;;;;4198749;28;20178;-88
2021/11/22 01:48:40;;;;;;;7.33;1.80;;;6.00;99.90;;;;;;4182855;28;20175;-87
2021/11/22 01:50:42;;;;;;;9.80;1.73;;;6.10;99.90;;;;;;4198365;28;20217;-87
2021/11/22 01:52:43;;;;;;;8.30;1.30;;;6.20;99.90;;;;;;4181781;28;20694;-88
2021/11/22 01:54:44;;;;;;;6.73;1.13;;;6.20;99.90;;;;;;4181834;28;20191;-88
2021/11/22 01:56:46;;;;;;;8.60;1.20;;;6.20;99.90;;;;;;4182338;28;20179;-87
2021/11/22 01:58:48;;;;;;;7.33;1.10;;;6.20;99.90;;;;;;4182479;28;20261;-88
2021/11/22 02:00:52;;;;;;;5.97;1.03;;;6.10;99.90;;;;;;4199303;28;20262;-88
2021/11/22 02:02:54;;;;;;;4.47;1.00;;;6.00;99.90;;;;;;4181925;28;20258;-87
2021/11/22 02:04:55;;;;;;;5.27;1.23;;;6.00;99.90;;;;;;4183726;28;20297;-88
2021/11/22 02:06:55;;;;;;;9.27;1.20;;;6.00;99.90;;;;;;4198821;28;20197;-88
2021/11/22 02:08:56;;;;;;;3.70;1.00;;;6.10;99.90;;;;;;4183018;28;20182;-87
2021/11/22 02:10:57;;;;;;;7.73;1.33;;;6.00;99.90;;;;;;4182765;28;20234;-88
2021/11/22 02:12:58;;;;;;;9.13;1.10;;;6.10;99.90;;;;;;4181332;28;20175;-87
2021/11/22 02:15:00;;;;;;;7.13;1.00;;;6.10;99.90;;;;;;4181562;28;20191;-88
2021/11/22 02:17:01;;;;;;;5.83;0.80;;;6.10;99.90;;;;;;4181406;28;20207;-87
2021/11/22 02:19:04;;;;;;;6.80;1.30;;;6.10;99.90;;;;;;4181466;28;20644;-88
2021/11/22 02:21:05;;;;;;;5.97;1.10;;;6.10;99.90;;;;;;4181962;28;20179;-87
2021/11/22 02:23:09;;;;;;;6.27;0.90;;;6.10;99.90;;;;;;4199730;28;20209;-88
2021/11/22 02:25:10;;;;;;;8.83;1.30;;;6.00;99.90;;;;;;4181734;28;20203;-88
2021/11/22 02:27:11;;;;;;;8.80;1.03;;;6.10;99.90;;;;;;4197950;28;20240;-88
2021/11/22 02:29:12;;;;;;;4.87;0.90;;;6.10;99.90;;;;;;4182044;28;20647;-88
2021/11/22 02:31:13;;;;;;;5.10;0.77;;;6.10;99.90;;;;;;4198776;28;20183;-87
2021/11/22 02:33:18;;;;;;;5.00;1.10;;;6.00;99.90;;;;;;4181764;28;20535;-88
2021/11/22 02:35:20;;;;;;;6.70;1.10;;;6.00;99.90;;;;;;4181573;28;20183;-87
2021/11/22 02:37:22;;;;;;;4.93;1.10;;;6.00;99.90;;;;;;4197902;28;20179;-88
2021/11/22 02:39:22;;;;;;;7.13;1.10;;;5.90;99.90;;;;;;4197912;28;20167;-88
2021/11/22 02:41:23;;;;;;;6.73;1.23;;;5.90;99.90;;;;;;4182499;28;20182;-88
2021/11/22 02:43:24;;;;;;;5.27;1.10;;;5.90;99.90;;;;;;4181102;28;20234;-88
2021/11/22 02:45:25;;;;;;;3.37;0.87;;;5.90;99.90;;;;;;4181549;28;20175;-88
2021/11/22 02:47:27;;;;;;;7.33;1.23;;;5.80;99.90;;;;;;4181224;28;20636;-88
2021/11/22 02:49:28;;;;;;;3.90;0.90;;;5.80;99.90;;;;;;4181575;28;20209;-87
2021/11/22 02:51:28;;;;;;;2.50;0.80;;;5.80;99.90;;;;;;4181712;28;20201;-87
2021/11/22 02:53:29;;;;;;;4.43;1.00;;;5.80;99.90;;;;;;4197802;28;20614;-87
2021/11/22 02:55:30;;;;;;;4.37;0.80;;;5.80;99.90;;;;;;4181583;28;20175;-87
2021/11/22 02:57:31;;;;;;;5.20;1.00;;;5.80;99.90;;;;;;4198645;28;20241;-88
2021/11/22 02:59:31;;;;;;;5.20;1.10;;;5.80;99.90;;;;;;4199557;28;20175;-93
2021/11/22 03:01:34;;;;;;;8.17;1.10;;;5.80;99.90;;;;;;4181172;28;20604;-87
2021/11/22 03:03:35;;;;;;;6.20;0.97;;;5.80;99.90;;;;;;4181680;28;20295;-87
2021/11/22 03:05:36;;;;;;;5.20;0.83;;;5.80;99.90;;;;;;4182263;28;20225;-88
2021/11/22 03:07:37;;;;;;;4.70;0.80;;;5.80;99.90;;;;;;4198633;28;20183;-93
2021/11/22 03:09:38;;;;;;;7.67;1.17;;;5.70;99.90;;;;;;4182125;28;20272;-87
2021/11/22 03:11:39;;;;;;;4.53;0.80;;;5.80;99.90;;;;;;4182215;28;20266;-87
2021/11/22 03:13:41;;;;;;;8.23;1.07;;;5.70;99.90;;;;;;4181142;28;20199;-88
2021/11/22 03:15:42;;;;;;;5.13;1.00;;;5.70;99.90;;;;;;4181661;28;20175;-88
2021/11/22 03:17:44;;;;;;;6.00;1.00;;;5.70;99.90;;;;;;4198750;28;20174;-88
2021/11/22 03:19:45;;;;;;;3.57;0.87;;;5.70;99.90;;;;;;4180822;28;20184;-88
2021/11/22 03:21:47;;;;;;;7.63;1.00;;;5.70;99.90;;;;;;4181154;28;20271;-87
2021/11/22 03:23:48;;;;;;;4.90;0.90;;;5.70;99.90;;;;;;4198207;28;20214;-88
2021/11/22 03:25:49;;;;;;;3.83;0.80;;;5.70;99.90;;;;;;4180839;28;20681;-87
2021/11/22 03:27:50;;;;;;;4.40;0.70;;;5.70;99.90;;;;;;4183335;28;20179;-88
2021/11/22 03:29:51;;;;;;;6.07;1.20;;;5.70;99.90;;;;;;4181857;28;20599;-88
2021/11/22 03:31:52;;;;;;;7.97;1.53;;;5.70;99.90;;;;;;4198650;28;20236;-88
2021/11/22 03:33:53;;;;;;;5.83;0.80;;;5.60;99.90;;;;;;4180713;28;20188;-88
2021/11/22 03:35:55;;;;;;;2.67;0.83;;;5.70;99.90;;;;;;4181641;28;20176;-87
2021/11/22 03:37:56;;;;;;;2.57;0.57;;;5.70;99.90;;;;;;4198117;28;20300;-87
2021/11/22 03:39:56;;;;;;;7.60;1.27;;;5.70;99.90;;;;;;4197835;28;20171;-88
2021/11/22 03:42:01;;;;;;;5.50;1.00;;;5.70;99.90;;;;;;4181607;28;20674;-87
2021/11/22 03:44:10;;;;;;;3.87;0.80;;;5.70;99.90;;;;;;4181552;28;20215;-93
2021/11/22 03:46:11;;;;;;;3.27;0.80;;;5.60;99.90;;;;;;4180726;28;20260;-87
2021/11/22 03:48:12;;;;;;;2.97;0.80;;;5.60;99.90;;;;;;4181636;28;20175;-87
2021/11/22 03:50:13;;;;;;;5.03;0.87;;;5.50;99.90;;;;;;4197214;28;20213;-88
2021/11/22 03:52:14;;;;;;;6.73;1.10;;;5.50;99.90;;;;;;4183931;28;20175;-89
2021/11/22 03:54:16;;;;;;;3.47;0.80;;;5.60;99.90;;;;;;4183735;28;20199;-87
2021/11/22 03:56:17;;;;;;;3.53;0.90;;;5.60;99.90;;;;;;4184548;28;20612;-88
2021/11/22 03:58:18;;;;;;;3.07;0.60;;;5.60;99.90;;;;;;4200277;28;20170;-88
2021/11/22 04:00:19;;;;;;;6.57;0.67;;;5.50;99.90;;;;;;4183783;28;20198;-87
2021/11/22 04:02:20;;;;;;;4.07;0.73;;;5.60;99.90;;;;;;4183613;28;20190;-87
2021/11/22 04:04:20;;;;;;;2.17;0.60;;;5.50;99.90;;;;;;4199913;28;20214;-88
2021/11/22 04:06:21;;;;;;;4.47;1.20;;;5.50;99.90;;;;;;4183837;28;20566;-88
2021/11/22 04:08:22;;;;;;;5.47;0.90;;;5.50;99.90;;;;;;4200152;28;20257;-89
2021/11/22 04:10:23;;;;;;;6.07;0.70;;;5.50;99.90;;;;;;4183535;28;20639;-87
2021/11/22 04:12:24;;;;;;;4.37;0.70;;;5.50;99.90;;;;;;4183414;28;20178;-88
2021/11/22 04:14:25;;;;;;;5.00;0.70;;;5.50;99.90;;;;;;4183980;28;20195;-88
2021/11/22 04:16:26;;;;;;;4.40;0.63;;;5.50;99.90;;;;;;4199768;28;20232;-88
2021/11/22 04:18:27;;;;;;;4.90;0.90;;;5.60;99.90;;;;;;4183366;28;20210;-88
2021/11/22 04:20:28;;;;;;;3.63;0.60;;;5.50;99.90;;;;;;4183023;28;20171;-87
2021/11/22 04:22:28;;;;;;;3.80;0.93;;;5.60;99.90;;;;;;4183717;28;20168;-88
2021/11/22 04:24:29;;;;;;;7.63;0.53;;;5.50;99.90;;;;;;4199654;28;20266;-88
2021/11/22 04:26:31;;;;;;;3.47;0.67;;;5.60;99.90;;;;;;4183547;28;20517;-88
2021/11/22 04:28:32;;;;;;;8.70;0.63;;;5.60;99.90;;;;;;4183750;28;20172;-87
2021/11/22 04:30:34;;;;;;;2.00;0.73;;;5.60;99.90;;;;;;4200279;28;20198;-88
2021/11/22 04:32:35;;;;;;;6.00;0.80;;;5.60;99.90;;;;;;4183984;28;20281;-88
2021/11/22 04:34:38;;;;;;;4.27;0.77;;;5.60;99.90;;;;;;4183449;28;20211;-88
2021/11/22 04:36:38;;;;;;;4.60;0.90;;;5.60;99.90;;;;;;4183208;28;20186;-88
2021/11/22 04:38:39;;;;;;;1.13;0.40;;;5.50;99.90;;;;;;4183413;28;20198;-88
2021/11/22 04:40:40;;;;;;;3.77;0.80;;;5.50;99.90;;;;;;4183437;28;20175;-88
2021/11/22 04:42:45;;;;;;;4.47;0.70;;;5.50;99.90;;;;;;4183135;28;20175;-88
2021/11/22 04:44:46;;;;;;;5.20;1.10;;;5.50;99.90;;;;;;4183400;28;20375;-88
2021/11/22 04:46:47;;;;;;;3.00;0.60;;;5.40;99.90;;;;;;4200180;28;20171;-88
2021/11/22 04:48:48;;;;;;;6.40;0.80;;;5.40;99.90;;;;;;4183248;28;20180;-88
2021/11/22 04:50:48;;;;;;;4.97;0.80;;;5.40;99.90;;;;;;4199410;28;20343;-88
2021/11/22 04:52:50;;;;;;;2.57;0.60;;;5.40;99.90;;;;;;4182739;28;20175;-87
2021/11/22 04:54:51;;;;;;;3.30;0.80;;;5.40;99.90;;;;;;4183833;28;20191;-88
2021/11/22 04:56:51;;;;;;;2.57;0.63;;;5.40;99.90;;;;;;4183003;28;20209;-88
2021/11/22 04:58:52;;;;;;;3.83;0.70;;;5.40;99.90;;;;;;4183103;28;20552;-88
2021/11/22 05:00:53;;;;;;;2.50;0.60;;;5.40;99.90;;;;;;4183144;28;20171;-87
2021/11/22 05:02:54;;;;;;;3.70;0.63;;;5.30;99.90;;;;;;4199092;28;20672;-87
2021/11/22 05:04:54;;;;;;;3.23;0.83;;;5.30;99.90;;;;;;4182951;28;20727;-87
2021/11/22 05:06:55;;;;;;;3.67;0.70;;;5.30;99.90;;;;;;4199212;28;20175;-88
2021/11/22 05:08:56;;;;;;;2.83;0.67;;;5.30;99.90;;;;;;4183581;28;20175;-87
2021/11/22 05:10:57;;;;;;;3.73;0.90;;;5.30;99.90;;;;;;4182780;28;20176;-87
2021/11/22 05:12:58;;;;;;;4.90;0.80;;;5.30;99.90;;;;;;4182980;28;20178;-87
2021/11/22 05:14:59;;;;;;;3.77;0.80;;;5.40;99.90;;;;;;4184246;28;20700;-88
2021/11/22 05:17:00;;;;;;;5.57;0.70;;;5.30;99.90;;;;;;4188256;28;20172;-89
2021/11/22 05:19:01;;;;;;;3.97;0.60;;;5.30;99.90;;;;;;4188971;28;20180;-88
2021/11/22 05:21:02;;;;;;;5.03;0.60;;;5.30;99.90;;;;;;4183226;28;20179;-88
2021/11/22 05:23:03;;;;;;;4.53;1.17;;;5.20;99.90;;;;;;4199495;28;20217;-87
2021/11/22 05:25:05;;;;;;;6.13;0.73;;;5.10;99.90;;;;;;4199470;28;20202;-87
2021/11/22 05:27:05;;;;;;;5.03;1.00;;;5.10;99.90;;;;;;4182571;28;20187;-87
2021/11/22 05:29:08;;;;;;;4.00;0.77;;;5.10;99.90;;;;;;4182810;28;20176;-87
2021/11/22 05:31:09;;;;;;;4.53;1.00;;;5.10;99.90;;;;;;4182740;28;20168;-88
2021/11/22 05:33:10;;;;;;;8.67;0.97;;;5.10;99.90;;;;;;4182252;28;20187;-89
2021/11/22 05:35:10;;;;;;;2.93;0.60;;;5.10;99.90;;;;;;4183080;28;20670;-88
2021/11/22 05:37:12;;;;;;;4.47;0.87;;;5.10;99.90;;;;;;4199506;28;20666;-88
2021/11/22 05:39:12;;;;;;;2.40;0.80;;;5.10;99.90;;;;;;4181968;28;20262;-88
2021/11/22 05:41:13;;;;;;;3.80;0.70;;;5.10;99.90;;;;;;4182735;28;20179;-88
2021/11/22 05:43:14;;;;;;;4.30;0.70;;;5.10;99.90;;;;;;4181916;28;20211;-88
2021/11/22 05:45:15;;;;;;;4.60;0.97;;;5.00;99.90;;;;;;4183268;28;20286;-89
2021/11/22 05:47:16;;;;;;;4.93;0.83;;;5.10;99.90;;;;;;4182225;28;20187;-89
2021/11/22 05:49:17;;;;;;;5.07;0.90;;;5.10;99.90;;;;;;4182114;28;20179;-88
2021/11/22 05:51:18;;;;;;;4.33;0.73;;;5.10;99.90;;;;;;4182325;28;20337;-92
2021/11/22 05:53:20;;;;;;;2.83;0.70;;;5.10;99.90;;;;;;4181981;28;20182;-90
2021/11/22 05:55:30;;;;;;;2.73;0.90;;;5.10;99.90;;;;;;4182106;28;20179;-91
2021/11/22 05:57:31;;;;;;;4.87;0.80;;;5.10;99.90;;;;;;4198330;28;20185;-91
2021/11/22 05:59:31;;;;;;;2.97;0.80;;;5.10;99.90;;;;;;4198689;28;20171;-89
2021/11/22 06:01:32;;;;;;;1.90;0.80;;;5.10;99.90;;;;;;4181751;28;20258;-90
2021/11/22 06:03:34;;;;;;;4.70;1.00;;;5.10;99.90;;;;;;4197919;28;20217;-90
2021/11/22 06:05:35;;;;;;;5.57;0.93;;;5.10;99.90;;;;;;4181610;28;20543;-91
2021/11/22 06:07:38;;;;;;;7.13;0.83;;;5.10;99.90;;;;;;4198789;28;20217;-91
2021/11/22 06:09:39;;;;;;;6.13;1.03;;;5.10;99.90;;;;;;4182387;28;20729;-90
2021/11/22 06:11:43;;;;;;;5.43;1.00;;;5.10;99.90;;;;;;4181724;28;20183;-90
2021/11/22 06:13:43;;;;;;;3.77;0.97;;;5.10;99.90;;;;;;4181297;28;20195;-90
2021/11/22 06:15:46;;;;;;;5.37;0.80;;;5.10;99.90;;;;;;4181954;28;20213;-91
2021/11/22 06:17:47;;;;;;;4.70;0.93;;;5.10;99.90;;;;;;4181678;28;20245;-92
2021/11/22 06:19:48;;;;;;;4.30;0.80;;;5.10;99.90;;;;;;4181528;28;20187;-89
2021/11/22 06:21:48;;;;;;;3.23;1.00;;;5.00;99.90;;;;;;4182112;28;20194;-90
2021/11/22 06:23:49;;;;;;;8.57;1.00;;;5.00;99.90;;;;;;4181796;28;20211;-90
2021/11/22 06:25:50;;;;;;;7.67;1.30;;;4.90;99.90;;;;;;4182079;28;20183;-89
2021/11/22 06:27:51;;;;;;;6.07;1.10;;;5.00;99.90;;;;;;4181746;28;20249;-91
2021/11/22 06:29:52;;;;;;;2.50;0.67;;;5.00;99.90;;;;;;4181361;28;20171;-89
2021/11/22 06:31:53;;;;;;;2.87;0.80;;;5.00;99.90;;;;;;4181570;28;20179;-91
2021/11/22 06:33:54;;;;;;;2.60;0.70;;;4.90;99.90;;;;;;4181338;28;20207;-90
2021/11/22 06:35:54;;;;;;;4.43;0.80;;;4.90;99.90;;;;;;4181213;28;20198;-92
2021/11/22 06:37:55;;;;;;;7.17;1.20;;;4.90;99.90;;;;;;4197840;28;20600;-90
2021/11/22 06:39:56;;;;;;;4.50;1.00;;;4.80;99.90;;;;;;4181221;28;20171;-90
2021/11/22 06:41:57;;;;;;;4.67;1.00;;;4.90;99.90;;;;;;4198664;28;20214;-90
2021/11/22 06:43:58;;;;;;;6.80;0.80;;;4.80;99.90;;;;;;4198414;28;20226;-91
2021/11/22 06:45:58;;;;;;;3.93;0.73;;;4.80;99.90;;;;;;4182512;28;20702;-90
2021/11/22 06:47:59;;;;;;;4.07;0.80;;;4.90;99.90;;;;;;4181634;28;20220;-91
2021/11/22 06:50:02;;;;;;;7.20;1.10;;;4.90;99.90;;;;;;4181466;28;20178;-90
2021/11/22 06:52:03;;;;;;;4.13;0.90;;;4.90;99.90;;;;;;4182109;28;20210;-90
2021/11/22 06:54:04;;;;;;;3.63;0.90;;;4.90;99.90;;;;;;4197947;28;20194;-92
2021/11/22 06:56:05;;;;;;;6.37;1.00;;;4.90;99.90;;;;;;4181422;28;20206;-90
2021/11/22 06:58:06;;;;;;;2.87;0.80;;;4.90;99.90;;;;;;4198168;28;20178;-91
2021/11/22 07:00:10;;;;;;;4.83;0.90;;;5.00;99.90;;;;;;4181686;28;20179;-91
2021/11/22 07:02:16;;;;;;;2.90;0.90;;;5.00;99.90;;;;;;4181194;28;20183;-91
2021/11/22 07:04:16;;;;;;;3.83;0.90;;;5.10;99.90;;;;;;4181238;28;20222;-91
2021/11/22 07:06:17;;;;;;;2.00;0.80;;;5.10;99.90;;;;;;4197683;28;20229;-90
2021/11/22 07:08:18;;;;;;;2.67;0.87;;;5.10;99.90;;;;;;4181646;28;20179;-91
2021/11/22 07:10:21;;;;;;;4.87;1.20;;;5.10;99.90;;;;;;4198013;28;20204;-90
2021/11/22 07:12:22;;;;;;;6.00;1.27;;;5.20;99.90;;;;;;4198487;28;20179;-90
2021/11/22 07:14:23;;;;;;;4.53;1.13;;;5.20;99.90;;;;;;4181932;28;20199;-90
2021/11/22 07:16:24;;;;;;;4.47;1.30;;;5.20;99.90;;;;;;4181038;28;20624;-91
2021/11/22 07:18:25;;;;;;;3.53;1.10;;;5.20;99.90;;;;;;4181735;28;20176;-91
2021/11/22 07:20:25;;;;;;;4.53;1.07;;;5.30;99.90;;;;;;4180997;28;20178;-91
2021/11/22 07:22:27;;;;;;;4.43;1.00;;;5.20;99.90;;;;;;4180944;28;20224;-91
2021/11/22 07:24:27;;;;;;;2.70;0.90;;;5.20;99.90;;;;;;4181688;28;20314;-90
2021/11/22 07:26:28;;;;;;;2.70;0.83;;;5.30;99.90;;;;;;4198949;28;20191;-89
2021/11/22 07:28:29;;;;;;;3.20;1.00;;;5.30;99.90;;;;;;4184657;28;20193;-91
2021/11/22 07:30:30;;;;;;;2.83;1.07;;;5.30;99.90;;;;;;4184250;28;20269;-91
2021/11/22 07:32:31;;;;;;;4.57;1.07;;;5.30;99.90;;;;;;4184691;28;20171;-91
2021/11/22 07:34:31;;;;;;;2.83;0.90;;;5.30;99.90;;;;;;4184524;28;20183;-95
2021/11/22 07:36:32;;;;;;;5.07;1.03;;;5.30;99.90;;;;;;4183995;28;20183;-94
2021/11/22 07:38:35;;;;;;;4.30;1.27;;;5.30;99.90;;;;;;4184064;28;20608;-93
2021/11/22 07:40:36;;;;;;;6.87;1.30;;;5.40;99.90;;;;;;4184176;28;20206;-92
2021/11/22 07:42:37;;;;;;;3.50;1.10;;;5.30;99.90;;;;;;4200915;28;20323;-91
2021/11/22 07:44:38;;;;;;;4.47;1.30;;;5.30;99.90;;;;;;4184127;28;20931;-91
2021/11/22 07:46:39;;;;;;;4.63;1.13;;;5.30;99.90;;;;;;4183954;28;20176;-92
2021/11/22 07:48:40;;;;;;;5.33;1.37;;;5.30;99.90;;;;;;4184330;28;20268;-90
2021/11/22 07:50:42;;;;;;;5.57;1.40;;;5.30;99.90;;;;;;4200165;28;20266;-92
2021/11/22 07:52:42;;;;;;;5.20;1.27;;;5.30;99.90;;;;;;4183590;28;20179;-91
2021/11/22 07:54:43;;;;;;;5.40;1.23;;;5.40;99.90;;;;;;4200906;28;20244;-92
2021/11/22 07:56:44;;;;;;;4.53;1.40;;;5.30;99.90;;;;;;4184166;28;20184;-93
2021/11/22 07:58:45;;;;;;;3.27;1.37;;;5.30;99.90;;;;;;4184080;28;20586;-92
2021/11/22 08:00:46;;;;;;;4.07;1.20;;;5.40;99.90;;;;;;4184345;28;20171;-92
2021/11/22 08:02:48;;;;;;;6.27;1.37;;;5.30;99.90;;;;;;4200669;28;20179;-93
2021/11/22 08:04:49;;;;;;;6.90;1.63;;;5.30;99.90;;;;;;4183603;28;20223;-92
2021/11/22 08:06:51;;;;;;;4.90;1.30;;;5.40;99.90;;;;;;4184463;28;20654;-90
2021/11/22 08:08:52;;;;;;;3.77;1.70;;;5.40;99.90;;;;;;4183843;28;20194;-92
2021/11/22 08:11:06;;;;;;;5.17;1.67;;;5.40;99.90;;;;;;4184414;28;20175;-92
2021/11/22 08:13:09;;;;;;;3.93;1.67;;;5.40;99.90;;;;;;4184598;28;20175;-93
2021/11/22 08:15:11;;;;;;;3.20;1.47;;;5.30;99.90;;;;;;4184292;28;20203;-91
2021/11/22 08:17:12;;;;;;;5.00;1.87;;;5.30;99.90;;;;;;4183879;28;20171;-91
2021/11/22 08:19:13;;;;;;;5.20;1.73;;;5.30;99.90;;;;;;4184246;28;20198;-93
2021/11/22 08:21:14;;;;;;;6.57;1.80;;;5.30;99.90;;;;;;4183272;28;20548;-92
2021/11/22 08:23:14;;;;;;;4.33;1.80;;;5.40;99.90;;;;;;4183462;28;20318;-91
2021/11/22 08:25:17;;;;;;;8.63;1.90;;;5.30;99.90;;;;;;4183352;28;20200;-91
2021/11/22 08:27:22;;;;;;;4.47;1.80;;;5.20;99.90;;;;;;4185567;28;20864;-96
2021/11/22 08:29:23;;;;;;;4.67;1.80;;;5.30;99.90;;;;;;4183477;28;20191;-92
2021/11/22 08:31:23;;;;;;;2.77;1.43;;;5.30;99.90;;;;;;4185076;28;21269;-91
2021/11/22 08:33:24;;;;;;;3.93;2.10;;;5.30;99.90;;;;;;4184094;28;20666;-91
2021/11/22 08:35:28;;;;;;;5.87;1.73;;;5.30;99.90;;;;;;4183744;28;20670;-93
2021/11/22 08:37:29;;;;;;;4.67;2.00;;;5.40;99.90;;;;;;4182896;28;20189;-93
2021/11/22 08:39:30;;;;;;;4.37;1.90;;;5.40;99.90;;;;;;4201872;28;20179;-95
2021/11/22 08:41:32;;;;;;;5.07;1.77;;;5.40;99.90;;;;;;4201199;28;20524;-92
2021/11/22 08:43:32;;;;;;;5.60;2.37;;;5.40;99.90;;;;;;4184812;28;20207;-92
2021/11/22 08:45:33;;;;;;;5.20;2.17;;;5.40;99.90;;;;;;4182934;28;20258;-92
2021/11/22 08:47:35;;;;;;;3.73;1.80;;;5.50;99.90;;;;;;4201194;28;20171;-94
2021/11/22 08:49:36;;;;;;;4.33;2.40;;;5.50;99.90;;;;;;4182802;28;20639;-92
2021/11/22 08:51:37;;;;;;;3.83;1.80;;;5.50;99.90;;;;;;4183626;28;20253;-96
2021/11/22 08:53:38;;;;;;;5.20;2.23;;;5.50;99.90;;;;;;4183454;28;20175;-92
2021/11/22 08:55:39;;;;;;;3.53;1.97;;;5.50;99.90;;;;;;4182998;28;20226;-91
2021/11/22 08:57:40;;;;;;;3.83;2.20;;;5.50;99.90;;;;;;4183294;28;20171;-96
2021/11/22 08:59:41;;;;;;;4.27;1.97;;;5.40;99.90;;;;;;4184550;28;20659;-92
2021/11/22 09:01:43;;;;;;;3.43;2.00;;;5.40;99.90;;;;;;4182683;28;20265;-92
2021/11/22 09:03:43;;;;;;;3.97;1.70;;;5.40;99.90;;;;;;4183640;28;20306;-92
2021/11/22 09:05:44;;;;;;;4.30;2.23;;;5.50;99.90;;;;;;4182747;28;20176;-91
2021/11/22 09:07:45;;;;;;;3.73;2.10;;;5.50;99.90;;;;;;4183673;28;20205;-90
2021/11/22 09:09:46;;;;;;;6.93;2.20;;;5.40;99.90;;;;;;4183760;28;20171;-95
2021/11/22 09:11:47;;;;;;;5.20;2.20;;;5.40;99.90;;;;;;4182938;28;20275;-92
2021/11/22 09:13:48;;;;;;;3.77;2.10;;;5.50;99.90;;;;;;4200169;28;20198;-92
2021/11/22 09:15:49;;;;;;;4.10;2.20;;;5.50;99.90;;;;;;4185327;28;20171;-92
2021/11/22 09:17:49;;;;;;;5.70;2.10;;;5.60;99.90;;;;;;4182759;28;20182;-92
2021/11/22 09:19:50;;;;;;;3.83;1.97;;;5.70;99.90;;;;;;4199407;28;20163;-93
2021/11/22 09:21:51;;;;;;;5.47;2.33;;;5.70;99.90;;;;;;4199812;28;20229;-92
2021/11/22 09:23:52;;;;;;;4.10;1.90;;;5.70;99.90;;;;;;4182868;28;20215;-93
2021/11/22 09:25:53;;;;;;;4.73;2.07;;;5.70;99.90;;;;;;4182915;28;20656;-92
2021/11/22 09:27:55;;;;;;;7.00;2.53;;;5.80;99.90;;;;;;4200413;28;20174;-92
2021/11/22 09:29:58;;;;;;;7.13;2.33;;;5.90;99.90;;;;;;4201662;28;20224;-92
2021/11/22 09:31:58;;;;;;;4.53;2.33;;;5.90;99.90;;;;;;4200658;28;20265;-96
2021/11/22 09:33:59;;;;;;;5.67;2.40;;;5.90;99.90;;;;;;4201887;28;20546;-92
2021/11/22 09:36:00;;;;;;;6.17;2.57;;;5.90;99.90;;;;;;4183405;28;20179;-92
2021/11/22 09:38:01;;;;;;;4.27;2.43;;;6.00;99.90;;;;;;4183309;28;20171;-92
2021/11/22 09:40:02;;;;;;;7.70;2.57;;;6.00;99.90;;;;;;4184473;28;20210;-92
2021/11/22 09:42:04;;;;;;;6.03;2.40;;;6.10;99.90;;;;;;4183752;28;20167;-92
2021/11/22 09:44:05;;;;;;;5.03;1.87;;;6.20;99.90;;;;;;4183129;28;20218;-91
2021/11/22 09:46:06;;;;;;;4.43;1.57;;;6.20;99.90;;;;;;4182971;28;20168;-91
2021/11/22 09:48:06;;;;;;;4.73;1.90;;;6.10;99.90;;;;;;4184353;28;20277;-91
2021/11/22 09:50:08;;;;;;;4.63;1.80;;;6.10;99.90;;;;;;4184078;28;20171;-91
2021/11/22 09:52:09;;;;;;;3.00;1.40;;;6.00;99.90;;;;;;4183973;28;20183;-93
2021/11/22 09:54:10;;;;;;;5.67;1.47;;;6.00;99.90;;;;;;4182043;28;20277;-93
2021/11/22 09:56:11;;;;;;;4.73;1.70;;;6.00;99.90;;;;;;4183261;28;20647;-93
2021/11/22 09:58:13;;;;;;;5.40;1.43;;;6.00;99.90;;;;;;4181885;28;20199;-92
2021/11/22 10:00:15;;;;;;;6.30;1.60;;;6.00;99.90;;;;;;4182939;28;20190;-92
2021/11/22 10:02:15;;;;;;;3.83;1.37;;;6.10;99.90;;;;;;4181725;28;20204;-93
2021/11/22 10:04:18;;;;;;;2.87;1.30;;;6.10;99.90;;;;;;4183211;28;20230;-93
2021/11/22 10:06:18;;;;;;;5.70;1.43;;;6.10;99.90;;;;;;4181628;28;20181;-92
2021/11/22 10:08:22;;;;;;;4.20;1.80;;;6.30;99.90;;;;;;4182088;28;20203;-92
2021/11/22 10:10:23;;;;;;;2.30;1.27;;;6.50;99.90;;;;;;4198274;28;20276;-92
2021/11/22 10:12:25;;;;;;;5.70;1.60;;;6.50;99.90;;;;;;4182336;28;20246;-93
2021/11/22 10:14:38;;;;;;;2.67;1.40;;;6.50;99.90;;;;;;4181721;28;20200;-91
2021/11/22 10:16:40;;;;;;;4.40;1.53;;;6.50;99.90;;;;;;4181857;28;20636;-92
2021/11/22 10:18:55;;;;;;;5.20;1.67;;;6.60;99.90;;;;;;4181566;28;20206;-92
2021/11/22 10:21:02;;;;;;;2.07;1.10;;;6.70;99.90;;;;;;4182707;28;20555;-92
2021/11/22 10:23:06;;;;;;;5.17;1.40;;;6.80;99.90;;;;;;4198829;28;20166;-91
2021/11/22 10:25:30;;;;;;;8.03;1.73;;;6.80;99.90;;;;;;4182762;28;20733;-92
2021/11/22 10:27:38;;;;;;;4.57;1.57;;;6.80;99.90;;;;;;4198202;28;20208;-92
2021/11/22 10:29:39;;;;;;;3.57;1.50;;;6.90;99.90;;;;;;4181411;28;20163;-92
2021/11/22 10:31:40;;;;;;;4.33;1.40;;;6.90;99.90;;;;;;4198052;28;20232;-92
2021/11/22 10:33:43;;;;;;;4.70;1.27;;;6.90;99.90;;;;;;4182380;28;20691;-92
2021/11/22 10:35:45;;;;;;;3.13;1.53;;;7.00;99.90;;;;;;4181394;28;20670;-92
2021/11/22 10:37:57;;;;;;;3.23;1.20;;;7.00;99.90;;;;;;4182113;28;20168;-91
2021/11/22 10:40:15;;;;;;;3.90;1.17;;;7.00;99.90;;;;;;4180957;28;20182;-91
2021/11/22 10:42:27;;;;;;;1.87;1.10;;;7.10;99.90;;;;;;4182927;28;20183;-94